2021-03-02   05:38:44
Välj tävling:

Välj språk:
Swedish English Denmark Finland

Program för Bergen Swim Festival, AdO Arena

Nedan visas startlistor och heatlistor uppdelade per tävlingspass.

Tävlingspass

Document
Entry List
Bergen Swim Festival 2019
Organizer:
Place: AdO Arena Bergensklubbene
Pool: 50m Competition Date: Apr 5, 2019 to Apr 7, 2019
22 200m Medley Women
Sponsor: Sparebanken Vest
WR 2:06.12 Katinka Hosszu 1989 Hungary HUN Kazan RUS 03.08.2015
BSF 2:12.58 Katinka Hosszu 1989 Vasas SC Hun Bergen 29.05.2016
NOR 2:15.13 Sara Nordenstam 1983 Lambertseter NOR Beijing CHI 11.08.2008
# ID Name Team Born License Pool Entry
time
Status
1 836 Katinka Hosszu Vasas SC 1989 50m 2:10.06
2 125 Malene Rypestøl Team Sør/VSLK 2001 25m 2:10.69
3 144 Marie Pietruschka SSG Leipzig e.V. 1995 153948 25m 2:10.97
4 822 Alexandra Wenk Deutcher Schwimm-Verband 1995 25m 2:11.04
5 812 Yara Sophie Hierath Deutcher Schwimm-Verband 2001 50m 2:16.39
6 811 Franziska Hentke Deutcher Schwimm-Verband 1989 25m 2:16.93
7 543 Johanne Heines Pettersen Bergens Svømme Club 1999 25m 2:18.88
8 352 Susann Pleym Olsen BS/Delfana 1997 25m 2:19.29
9 470 Stine Omdahl Petersen Bærumsvømmerne 1999 25m 2:20.80
10 261 Oda Kristine Borgstrøm Randaberg IL 1999 25m 2:21.11
11 848 Selina Müller Deutcher Schwimm-Verband 1998 50m 2:21.50 LAT
12 796 Uljana Gorlova Lambertseter SK 2003 25m 2:22.07
13 860 Samira Svea Erhardt Deutcher Schwimm-Verband 1999 50m 2:22.40
14 190 Timea Aspegren Ullensakersvømmerne 2002 25m 2:22.46
15 760 Elin Peng Väsby Simsällskap 2003 AJ7603 25m 2:22.60
16 742 Smilla Lönnberg Stockholms
Kappsimningsklubb
2001 AQ0801 25m 2:23.24
17 536 Helene Torsvik Lorentz Bergens Svømme Club 2004 25m 2:24.29
18 403 Synne Kristine Lauritzen Haldens SK 2001 25m 2:24.30
19 571 Rebekka Trygvadóttir Svimjisamband Foroya 2004 25m 2:24.44
20 755 Louise Peacock Väsby Simsällskap 25m 2:24.50
2001 AL3601
21 347 Yngvild Salvesen Haldorsen BS/Delfana 25m 2:24.74
2002
22 740 Caroline Wallenborg Stockholms
Kappsimningsklubb
25m 2:24.77
2000 AL3800
23 33 Henriette Dale Vestkantsvømmerne 2003 K250303
HEN03
25m 2:25.49
24 353 Asdis Eva Omarsdottir BS/Delfana 2002 25m 2:25.60
25 473 Vilde Skaug Bærumsvømmerne 2002 25m 2:26.20
26 381 Frida Stretre Løbersli Skjetten Svømming 2004 25m 2:26.69
27 119 Marie Evy Søfteland Sarpsborg IL 2003 25m 2:26.80
28 567 Sára R. Nysted Svimjisamband Foroya 2001 25m 2:26.82
29 292 Eva Isabel Erbe SK Speed 2004 25m 2:26.85
30 260 Ingrid Elise Borgstrøm Randaberg IL 2004 25m 2:27.53
31 628 Inger Sandvold Stavanger Svømmeklubb 2004 25m 2:27.71
32 634 Marthe Cecilie Willumsen Stavanger Svømmeklubb 2002 25m 2:27.72
33 692 Erikka Næss Kjølholdt Oslo Idrettslag Svømming 2002 25m 2:27.77
34 687 Julie Fornasari Oslo Idrettslag Svømming 2003 25m 2:28.99
35 357 Tuva Stendalen BS/Delfana 2002 25m 2:29.01
36 246 Tina Hosøy Nordås BS-LK 2001 25m 2:29.14
37 588 Vår Granhaug  Rotevatn Ullensakersvømmerne 2002 25m 2:29.29
38 425 Fleur Vermeiren FLANDERS SWIMMING
FEDERATION
2002 25m 2:29.40
39 658 Jonette Matland BS/Delfana 2004 25m 2:29.45
40 217 Aurora Stavøy Sortland SLK 2002 25m 2:29.56
41 120 Aurora Tilleraas Asak Sarpsborg IL 2001 25m 2:29.61
42 80 Samantha Pepevnik Poseidon 2005 25m 2:30.10
43 624 Kari Ystrøm Lærdal Stavanger Svømmeklubb 2003 25m 2:30.24
44 132 Tina Holmgren Hansen Harstad SK 2001 25m 2:30.42
45 178 Elise Lund Trondhjems SLK 2001 25m 2:31.14
46 380 Aurora Kjensli Skjetten Svømming 2004 25m 2:31.62
47 482 Finley Quinn Sandefjord SK 2000 25m 2:31.72
48 324 Tomine Hugaas Fjorden Vestbyen Trondheim 2002 25m 2:32.47
49 754 Ebba Andersson Väsby Simsällskap 2001 AL2601 50m 2:33.65
50 305 Madeleine Wold SK Speed 2003 25m 2:33.90
51 387 Eline Nygaard Vestkantsvømmerne 2000 K160700
ELI02
25m 2:33.92
52 427 Silje Rongevær Slyngstadli BS/Åstveit 2004 25m 2:34.01
53 767 Maria Bang Stockholmspolisens IF
Simfören
2003 BE8803 25m 2:35.67
54 514 Eira Ytre-Eide Asker SK 2000 25m 2:36.25
55 47 Leah Emilie Stensaker Nilsen Vestkantsvømmerne 2006 25m 2:36.64
56 274 Tiril Rørvik Team Sør/MSK 2004 25m 2:37.01
57 249 Tonje Merethe Lid Rasmussen BS-LK 2004 25m 2:37.49
58 463 Karin Sofie Syversveen Lie Bærumsvømmerne 2001 25m 2:38.00
59 303 Hilja Lyydia Stering SK Speed 2003 25m 2:38.02
60 127 Erika Ness Tverlandet IL 2003 1025318
0
25m 2:38.10
61 250 Stine Rotseth BS-LK 2003 50m 2:38.19
62 379 Vårin Hagesæter Skjetten Svømming 2003 25m 2:38.21
63 293 Amina Farahani SK Speed 2005 25m 2:38.28
64 245 Thea Maria Nilsen BS-LK 2001 25m 2:38.32
65 103 Sara Larsen Karmøy SK 2006 25m 2:38.44
66 389 Oda Åsheim Bryne SK 2002 25m 2:38.51
67 139 Hanna Sofie Rennemo Harstad SK 2003 25m 2:38.92
68 330 Margrethe Kvelstad Vestbyen Trondheim 2002 25m 2:39.08
69 299 Sirin Helsingeng Navelsaker SK Speed 2005 25m 2:39.59
70 209 Anne Raghnild Hansen Sortland SLK 2005 25m 2:39.75
71 772 Alexandra Lindén Stockholmspolisens IF
Simfören
2001 BG4801 25m 2:40.10
72 201 Stina Kletvang Ullensakersvømmerne 2005 25m 2:40.41
73 41 Kristine Kleppestrand Vestkantsvømmerne 2002 K080602
KRI03
25m 2:40.65
74 770 Elsa Fogelsjöö Stockholmspolisens IF
Simfören
2003 AX0403 25m 2:41.51
75 54 Linnea Solsvik Vestkantsvømmerne 25m 2:41.78
2006
76 56 Idunn Straume Vestkantsvømmerne 25m 2:42.39
2003 K120503I
DU01
77 430 Julie Ynnesdal BS/Åstveit 2003 25m 2:42.82
78 238 Marte Pleym Grønhaug BS-LK 2004 25m 2:43.64
79 326 Kristin Prestmo Jensen Vestbyen Trondheim 2000 25m 2:45.01
80 777 Heidi Saluveer Stockholmspolisens IF
Simfören
2003 AM5303 25m 2:45.35
81 325 Thea Sofie Haugen Vestbyen Trondheim 2003 25m 2:45.35
82 259 Sara Sjursen Zarghami BS-LK 2002 25m 2:45.68
83 60 Erle Torvik Grinde Kristiansund SK 2005 25m 2:45.77
84 488 Liv Hanh Basberg Asker SK 2004 25m 2:46.06
85 149 Tora Jakobsen Fauske SK 2002 25m 2:47.90
86 735 Lea Småland Arna SLK 2005 25m 2:47.91
87 240 Una Jensen BS-LK 2001 25m 2:48.59
88 92 Mari Eldegard Heie Ås IL 2004 25m 2:49.53
89 376 Benedikte April Løkken
Bendiksen
Skjetten Svømming 2005 25m 2:50.32
90 52 Pernille Schjenken Vestkantsvømmerne 2005 25m 2:51.25
91 175 Thais Farias Kristiansen Trondhjems SLK 2006 25m 2:51.91
92 57 Sara Straume Vestkantsvømmerne 2003 K120503
SAR02
25m 2:52.67
93 168 Embla Baarholm Trondhjems SLK 2004 25m 2:52.80
94 135 Lise Marcussen Harstad SK 2006 25m 2:53.69
95 505 Paw Wah Moo Sein Asker SK 2005 25m 2:55.64
96 258 Oline Hestad  Thunæs BS-LK 2006 25m 2:55.82
97 669 Nora V Kleppe Delfana 2002 25m 2:56.64
98 704 Ingrid Ree Bakken Klepp SSK 2006 25m 2:56.75
99 733 Isobel Nævdal Indresand Arna SLK 2006 25m 2:56.87
100 706 Emily Hatteland Krog Klepp SSK 2004 25m 2:57.16
101 38 Kristin Hals Vestkantsvømmerne 2005 25m 2:57.55
102 255 Vilde Roald Strand BS-LK 2005 25m 2:58.34
103 254 Iben Johanne Stene BS-LK 2005 25m 2:58.94
104 242 Victoria Ann Kvilekval BS-LK 2005 25m 3:00.68
105 578 Hedda Bastiansen Kvittingen Os Svømmeklubb 2004 25m 3:00.72
106 243 Vilde Lillefosse BS-LK 2006 25m 3:03.40
107 842 Tonje Tøhaug Bodø SK 2001 25m 3:04.63 LAT
108 213 Emilie Lykseth Iversen Sortland SLK 2005 25m 3:04.70
109 784 Bertine Landeråen Hess Øyane Svømmeklubb 2006 25m 3:04.81
110 656 Synne Sirnes Haugesund SK 2005 25m 3:05.14
111 395 Thea Johansen Våge Austevoll Idrettsklubb 2006 25m 3:09.27
112 511 Tuva Underdal-Loktu Asker SK 2005 25m 3:11.95
113 806 Thea Løkebø Sandefjord SK 2005 25m 3:13.90 SM13
114 241 Emilie Nicoline Korneliussen BS-LK 2006 25m 3:14.43
115 390 Maja Olsson Bjånes Austevoll Idrettsklubb 2005 25m 3:19.19
116 392 Louise Sivertsen  Lund Austevoll Idrettsklubb 2006 25m 3:20.76
117 234 Ingrid Ersland Undheim Stord symjing 2002 25m 3:27.03
118 391 Bertine Leknesund Klæboe Austevoll Idrettsklubb 2006 25m 3:32.74
119 186 Rebekka Wangberg Trondhjems SLK 2002 50m
120 302 Stine Holm Røed SK Speed 2000 25m
2019-04-05 07.12.52 Datahandling: WinGrodan 2.3 Licensed to: Bergens Svømme & Livredningsklub

LiveTiming iPhone Banner

LiveTiming iPhone Banner